KBKF

Buckley AFB Airport

Aurora, Colorado, USA
METAR KBKF 151858Z 30007KT 10SM FEW070 FEW220 12/M06 A2968 RMK AO2A SLP033 T01191065
Observed Flight Rules
Feb-15 @ 18:58 UTC (44 minutes ago) Visual Flight Rules
Wind Visibility Clouds
300° at 7 knots 10 miles
  • Few at 7,000' AGL
  • Few at 22,000' AGL
Temperatures Readings
Current 12°C / 54°F
Dewpoint -7°C / 19°F
Humidity 26%
Altimeter 29.68" Hg
Pressure 1003.3 hPa
Elevation 1726
METAR KBKF 151858Z 30007KT 10SM FEW070 FEW220 12/M06 A2968 RMK AO2A SLP033 T01191065
Observed Flight Rules
Feb-15 @ 18:58 UTC
(44 minutes ago)
VFR
Wind Visibility
300° at 7 knots 10 miles
Clouds
  • Few at 7,000' AGL
  • Few at 22,000' AGL
Temperature Dewpoint
12°C / 54°F -7°C / 19°F
Humidity Altimeter Pressure
26% 29.68" Hg 1003.3 hPa